Time;durP1;ratioP1;P1;durP2;ratioP2;P2;SDS_P1;SDS_P2;PMS_P1;PMS_P2;Temp;Humidity;BMP_temperature;BMP_pressure;BME280_temperature;BME280_humidity;BME280_pressure;Samples;Min_cycle;Max_cycle;Signal;HPM_P1;HPM_P2
2021/07/27 00:00:08;;;;;;;22.55;11.85;;;17.60;99.90;;;;;;2099723;28;20017;-71
2021/07/27 00:01:10;;;;;;;19.10;11.88;;;17.60;99.90;;;;;;2085246;28;20094;-72
2021/07/27 00:02:10;;;;;;;20.50;12.40;;;17.60;99.90;;;;;;2087332;28;20042;-71
2021/07/27 00:03:11;;;;;;;21.05;11.77;;;17.60;99.90;;;;;;2090714;28;20272;-71
2021/07/27 00:04:12;;;;;;;20.77;11.98;;;17.60;99.90;;;;;;2094954;28;20086;-71
2021/07/27 00:05:12;;;;;;;16.98;11.25;;;17.60;99.90;;;;;;2091542;28;20440;-71
2021/07/27 00:06:13;;;;;;;23.25;11.40;;;17.70;99.90;;;;;;2094701;28;20559;-71
2021/07/27 00:07:14;;;;;;;20.20;12.30;;;17.70;99.90;;;;;;2093571;28;20064;-72
2021/07/27 00:08:14;;;;;;;22.08;12.15;;;17.70;99.90;;;;;;2084973;28;20433;-72
2021/07/27 00:09:15;;;;;;;23.63;12.82;;;17.80;99.90;;;;;;2094570;28;20020;-71
2021/07/27 00:10:16;;;;;;;25.13;11.70;;;17.80;99.90;;;;;;2091555;28;20035;-74
2021/07/27 00:11:16;;;;;;;22.42;12.15;;;17.80;99.90;;;;;;2092280;28;20061;-73
2021/07/27 00:12:17;;;;;;;21.08;11.90;;;17.80;99.90;;;;;;2093513;28;20496;-71
2021/07/27 00:13:18;;;;;;;22.80;11.70;;;17.80;99.90;;;;;;2090987;28;20017;-71
2021/07/27 00:14:18;;;;;;;29.08;12.00;;;17.80;99.90;;;;;;2089234;28;20013;-71
2021/07/27 00:15:19;;;;;;;22.58;11.30;;;17.90;99.90;;;;;;2084944;28;20025;-71
2021/07/27 00:16:20;;;;;;;20.27;11.20;;;17.90;99.90;;;;;;2081574;28;20052;-72
2021/07/27 00:17:20;;;;;;;22.17;11.68;;;17.90;99.90;;;;;;2085183;28;20032;-72
2021/07/27 00:18:21;;;;;;;19.60;11.07;;;17.90;99.90;;;;;;2088868;28;20032;-71
2021/07/27 00:19:22;;;;;;;18.33;11.98;;;17.90;99.90;;;;;;2080853;28;20029;-73
2021/07/27 00:20:22;;;;;;;23.40;11.85;;;17.90;99.90;;;;;;2081602;28;20093;-72
2021/07/27 00:21:23;;;;;;;19.55;11.13;;;18.00;99.90;;;;;;2085993;28;20017;-73
2021/07/27 00:22:25;;;;;;;24.42;12.02;;;18.00;99.90;;;;;;2085591;28;20017;-72
2021/07/27 00:23:25;;;;;;;18.60;11.20;;;18.00;99.90;;;;;;2088498;28;20083;-73
2021/07/27 00:24:26;;;;;;;22.83;12.00;;;18.00;99.90;;;;;;2088160;28;20119;-72
2021/07/27 00:25:27;;;;;;;21.25;11.68;;;18.10;99.90;;;;;;2089215;28;20025;-72
2021/07/27 00:26:28;;;;;;;18.02;11.23;;;18.10;99.90;;;;;;2096560;28;20024;-73
2021/07/27 00:27:28;;;;;;;25.77;11.63;;;18.10;99.90;;;;;;2093033;28;20033;-72
2021/07/27 00:28:29;;;;;;;20.52;12.18;;;18.10;99.90;;;;;;2085829;28;20021;-72
2021/07/27 00:29:30;;;;;;;19.70;11.05;;;18.10;99.90;;;;;;2078481;28;20050;-72
2021/07/27 00:30:31;;;;;;;21.83;12.20;;;18.10;99.90;;;;;;2084021;28;20547;-73
2021/07/27 00:31:31;;;;;;;24.35;12.07;;;18.10;99.90;;;;;;2086274;28;20502;-73
2021/07/27 00:32:36;;;;;;;19.63;11.13;;;18.10;99.90;;;;;;2076863;28;20030;-71
2021/07/27 00:33:36;;;;;;;15.95;10.82;;;18.10;99.90;;;;;;2088451;28;20083;-72
2021/07/27 00:34:37;;;;;;;25.58;12.38;;;18.10;99.90;;;;;;2088356;28;20523;-72
2021/07/27 00:35:38;;;;;;;19.10;11.18;;;18.10;99.90;;;;;;2079768;28;20025;-73
2021/07/27 00:36:39;;;;;;;17.90;10.90;;;18.10;99.90;;;;;;2077601;28;20052;-73
2021/07/27 00:37:45;;;;;;;21.85;10.93;;;18.10;99.90;;;;;;2084106;28;20013;-72
2021/07/27 00:38:45;;;;;;;19.25;10.77;;;18.10;99.90;;;;;;2085762;28;20100;-70
2021/07/27 00:39:46;;;;;;;18.52;11.00;;;18.20;99.90;;;;;;2088791;28;20489;-75
2021/07/27 00:40:47;;;;;;;21.50;10.55;;;18.10;99.90;;;;;;2088810;28;20394;-71
2021/07/27 00:41:48;;;;;;;20.65;11.25;;;18.10;99.90;;;;;;2083805;28;20057;-72
2021/07/27 00:42:49;;;;;;;20.15;10.18;;;18.10;99.90;;;;;;2085140;28;20017;-71
2021/07/27 00:43:49;;;;;;;17.92;10.80;;;18.10;99.90;;;;;;2086260;28;20029;-71
2021/07/27 00:44:50;;;;;;;19.17;11.32;;;18.10;99.90;;;;;;2087583;28;20543;-71
2021/07/27 00:45:51;;;;;;;19.67;11.07;;;18.10;99.90;;;;;;2088523;28;20520;-72
2021/07/27 00:46:52;;;;;;;20.20;11.13;;;18.10;99.90;;;;;;2089229;28;20033;-72
2021/07/27 00:47:52;;;;;;;19.45;11.80;;;18.10;99.90;;;;;;2088677;28;20045;-71
2021/07/27 00:48:53;;;;;;;17.25;11.13;;;18.10;99.90;;;;;;2089177;28;20017;-71
2021/07/27 00:49:53;;;;;;;24.33;11.63;;;18.10;99.90;;;;;;2087805;28;20048;-72
2021/07/27 00:50:54;;;;;;;25.50;11.73;;;18.10;99.90;;;;;;2085583;28;20025;-72
2021/07/27 00:51:55;;;;;;;16.52;9.93;;;18.10;99.90;;;;;;2082744;28;20544;-72
2021/07/27 00:52:57;;;;;;;19.35;10.85;;;18.10;99.90;;;;;;2081616;28;20022;-71
2021/07/27 00:53:59;;;;;;;20.67;10.77;;;18.10;99.90;;;;;;2080342;28;20104;-71
2021/07/27 00:55:00;;;;;;;18.60;10.25;;;18.10;99.90;;;;;;2078741;28;20049;-71
2021/07/27 00:56:01;;;;;;;18.17;11.02;;;18.10;99.90;;;;;;2078996;28;20030;-70
2021/07/27 00:57:02;;;;;;;18.48;10.25;;;18.10;99.90;;;;;;2080486;28;20060;-75
2021/07/27 00:58:03;;;;;;;20.45;10.95;;;18.10;99.90;;;;;;2087851;28;20026;-75
2021/07/27 00:59:04;;;;;;;20.77;11.38;;;18.10;99.90;;;;;;2080515;28;20036;-73
2021/07/27 01:00:05;;;;;;;18.15;10.57;;;18.10;99.90;;;;;;2080573;28;20036;-73
2021/07/27 01:01:06;;;;;;;21.75;10.07;;;18.20;99.90;;;;;;2086608;28;20028;-73
2021/07/27 01:02:07;;;;;;;17.52;9.82;;;18.20;99.90;;;;;;2087595;28;20049;-74
2021/07/27 01:03:07;;;;;;;19.02;9.77;;;18.20;99.90;;;;;;2083999;28;20092;-72
2021/07/27 01:04:08;;;;;;;16.77;10.13;;;18.20;99.90;;;;;;2088336;28;20536;-73
2021/07/27 01:05:12;;;;;;;15.50;10.05;;;18.20;99.90;;;;;;2092826;28;20535;-73
2021/07/27 01:06:13;;;;;;;21.10;10.52;;;18.20;99.90;;;;;;2080989;28;20045;-73
2021/07/27 01:07:14;;;;;;;21.58;10.70;;;18.30;99.90;;;;;;2088850;28;20017;-72
2021/07/27 01:08:14;;;;;;;16.63;10.43;;;18.30;99.90;;;;;;2082251;28;20032;-73
2021/07/27 01:09:15;;;;;;;18.10;9.55;;;18.30;99.90;;;;;;2086746;28;20528;-73
2021/07/27 01:10:16;;;;;;;19.50;10.50;;;18.30;99.90;;;;;;2084510;28;20103;-73
2021/07/27 01:11:24;;;;;;;16.42;10.30;;;18.30;99.90;;;;;;2088205;28;20032;-73
2021/07/27 01:12:25;;;;;;;15.50;10.20;;;18.30;99.90;;;;;;2081926;28;20093;-73
2021/07/27 01:13:26;;;;;;;15.90;10.05;;;18.30;99.90;;;;;;2084230;28;20028;-72
2021/07/27 01:14:26;;;;;;;19.13;10.25;;;18.30;99.90;;;;;;2080205;28;20017;-73
2021/07/27 01:15:27;;;;;;;19.98;10.82;;;18.30;99.90;;;;;;2072219;28;20022;-73
2021/07/27 01:16:31;;;;;;;16.42;9.68;;;18.30;99.90;;;;;;2079865;28;20021;-72
2021/07/27 01:17:32;;;;;;;19.38;10.60;;;18.30;99.90;;;;;;2092206;28;20547;-74
2021/07/27 01:18:41;;;;;;;17.90;10.27;;;18.40;99.90;;;;;;2084878;28;20021;-73
2021/07/27 01:40:18;;;;;;;;;;;18.20;99.90;;;;;;2080323;28;19909;-73
2021/07/27 01:42:23;;;;;;;24.85;12.02;;;18.20;99.90;;;;;;2082630;28;20335;-72
2021/07/27 01:43:29;;;;;;;21.33;12.30;;;18.20;99.90;;;;;;2088394;28;20626;-73
2021/07/27 01:44:30;;;;;;;21.73;11.52;;;18.20;99.90;;;;;;2083010;28;20112;-73
2021/07/27 01:45:30;;;;;;;21.17;11.43;;;18.20;99.90;;;;;;2096066;28;20017;-73
2021/07/27 01:46:33;;;;;;;20.13;11.52;;;18.20;99.90;;;;;;2093634;28;20051;-73
2021/07/27 01:47:34;;;;;;;19.52;10.93;;;18.20;99.90;;;;;;2088794;28;20025;-74
2021/07/27 01:48:35;;;;;;;19.80;11.32;;;18.20;99.90;;;;;;2090313;28;20018;-73
2021/07/27 01:49:36;;;;;;;20.88;10.98;;;18.10;99.90;;;;;;2089873;28;20031;-73
2021/07/27 01:50:37;;;;;;;22.15;11.18;;;18.20;99.90;;;;;;2092884;28;20040;-72
2021/07/27 01:51:46;;;;;;;17.27;10.80;;;18.20;99.90;;;;;;2090352;28;20055;-73
2021/07/27 01:52:47;;;;;;;18.33;11.18;;;18.20;99.90;;;;;;2096709;28;20069;-72
2021/07/27 01:53:50;;;;;;;20.73;11.63;;;18.20;99.90;;;;;;2090214;28;20025;-73
2021/07/27 01:54:53;;;;;;;19.35;10.57;;;18.10;99.90;;;;;;2090095;28;20010;-74
2021/07/27 01:55:54;;;;;;;16.00;10.57;;;18.10;99.90;;;;;;2090501;28;20059;-74
2021/07/27 01:56:56;;;;;;;13.23;10.65;;;18.10;99.90;;;;;;2098428;28;20017;-74
2021/07/27 01:57:57;;;;;;;22.33;11.88;;;18.10;99.90;;;;;;2093929;28;20017;-73
2021/07/27 01:58:57;;;;;;;20.00;11.02;;;18.10;99.90;;;;;;2096926;28;20071;-72
2021/07/27 01:59:58;;;;;;;19.55;10.95;;;18.20;99.90;;;;;;2092160;28;20111;-75
2021/07/27 02:00:59;;;;;;;21.40;10.85;;;18.10;99.90;;;;;;2086909;28;20195;-72
2021/07/27 02:01:59;;;;;;;19.00;10.82;;;18.20;99.90;;;;;;2088462;28;20044;-72
2021/07/27 02:03:00;;;;;;;17.30;11.43;;;18.20;99.90;;;;;;2087731;28;20028;-72
2021/07/27 02:04:01;;;;;;;20.05;11.13;;;18.10;99.90;;;;;;2079465;28;20041;-71
2021/07/27 02:05:02;;;;;;;24.38;11.02;;;18.10;99.90;;;;;;2082555;28;20162;-72
2021/07/27 02:06:02;;;;;;;18.70;10.87;;;18.20;99.90;;;;;;2087422;28;20120;-73
2021/07/27 02:07:03;;;;;;;19.77;10.05;;;18.10;99.90;;;;;;2074169;28;20253;-72
2021/07/27 02:08:04;;;;;;;22.42;11.23;;;18.10;99.90;;;;;;2080063;28;20025;-75
2021/07/27 02:09:06;;;;;;;18.40;10.68;;;18.10;99.90;;;;;;2086829;28;20063;-73
2021/07/27 02:10:11;;;;;;;18.33;10.98;;;18.10;99.90;;;;;;2087338;28;20021;-73
2021/07/27 02:11:13;;;;;;;21.08;10.70;;;18.10;99.90;;;;;;2080609;28;20043;-73
2021/07/27 02:12:20;;;;;;;21.35;10.95;;;18.10;99.90;;;;;;2082708;28;20021;-72
2021/07/27 02:13:31;;;;;;;19.40;10.80;;;18.10;99.90;;;;;;2079827;28;20017;-73
2021/07/27 02:15:04;;;;;;;17.77;10.82;;;18.20;99.90;;;;;;2080578;28;20493;-72
2021/07/27 02:15:56;;;;;;;16.42;11.48;;;18.10;99.90;;;;;;2087486;28;20544;-75
2021/07/27 02:16:56;;;;;;;20.37;12.33;;;18.10;99.90;;;;;;2086493;28;20029;-73
2021/07/27 02:17:57;;;;;;;21.77;11.32;;;18.10;99.90;;;;;;2083923;28;20803;-72
2021/07/27 02:19:01;;;;;;;18.40;11.15;;;18.10;99.90;;;;;;2083600;28;20612;-72
2021/07/27 02:20:05;;;;;;;22.85;12.05;;;18.10;99.90;;;;;;2079477;28;20033;-73
2021/07/27 02:21:05;;;;;;;15.90;10.82;;;18.10;99.90;;;;;;2087066;28;20067;-72
2021/07/27 02:22:06;;;;;;;17.40;11.32;;;18.10;99.90;;;;;;2087196;28;20474;-72
2021/07/27 02:23:07;;;;;;;20.05;11.25;;;18.10;99.90;;;;;;2088257;28;20112;-72
2021/07/27 02:24:07;;;;;;;17.33;11.25;;;18.10;99.90;;;;;;2087738;28;20149;-72
2021/07/27 02:25:09;;;;;;;22.15;12.35;;;18.10;99.90;;;;;;2079615;28;20071;-72
2021/07/27 02:26:10;;;;;;;16.90;11.88;;;18.10;99.90;;;;;;2085141;28;20455;-73
2021/07/27 02:27:12;;;;;;;20.27;12.25;;;18.10;99.90;;;;;;2082209;28;20086;-71
2021/07/27 02:28:14;;;;;;;19.35;11.98;;;18.10;99.90;;;;;;2088128;28;20035;-71
2021/07/27 02:29:14;;;;;;;;;;;18.10;99.90;;;;;;2082902;28;20032;-72
2021/07/27 02:30:15;;;;;;;23.65;11.82;;;18.10;99.90;;;;;;2079508;28;20395;-72
2021/07/27 02:31:24;;;;;;;20.80;12.13;;;18.10;99.90;;;;;;2080086;28;20018;-73
2021/07/27 02:32:25;;;;;;;26.80;14.07;;;18.10;99.90;;;;;;2090709;28;20635;-73
2021/07/27 02:33:25;;;;;;;19.52;11.40;;;18.10;99.90;;;;;;2089671;28;20025;-72
2021/07/27 02:34:31;;;;;;;23.63;12.60;;;18.10;99.90;;;;;;2079064;28;20049;-72
2021/07/27 02:35:41;;;;;;;19.65;12.50;;;18.10;99.90;;;;;;2079122;28;20037;-72
2021/07/27 02:36:42;;;;;;;20.27;11.57;;;18.10;99.90;;;;;;2079411;28;20029;-73
2021/07/27 02:37:43;;;;;;;21.25;12.23;;;18.10;99.90;;;;;;2083963;28;20160;-72
2021/07/27 02:38:44;;;;;;;19.75;12.57;;;18.10;99.90;;;;;;2079482;28;20587;-72
2021/07/27 02:39:45;;;;;;;24.60;13.00;;;18.10;99.90;;;;;;2079258;28;20485;-72
2021/07/27 02:40:46;;;;;;;21.83;13.30;;;18.20;99.90;;;;;;2079358;28;20148;-72
2021/07/27 02:41:46;;;;;;;22.75;12.70;;;18.20;99.90;;;;;;2080135;28;20030;-72
2021/07/27 02:42:48;;;;;;;21.02;13.57;;;18.20;99.90;;;;;;2078148;28;20515;-72
2021/07/27 02:43:49;;;;;;;22.77;13.60;;;18.20;99.90;;;;;;2083587;28;20032;-71
2021/07/27 02:44:50;;;;;;;28.77;13.80;;;18.20;99.90;;;;;;2081826;28;20025;-72
2021/07/27 02:45:51;;;;;;;22.02;12.32;;;18.20;99.90;;;;;;2084094;28;20025;-73
2021/07/27 02:46:52;;;;;;;23.40;12.98;;;18.20;99.90;;;;;;2086028;28;20047;-71
2021/07/27 02:47:52;;;;;;;24.42;12.95;;;18.20;99.90;;;;;;2079155;28;20171;-74
2021/07/27 02:48:53;;;;;;;27.20;13.30;;;18.20;99.90;;;;;;2086833;28;20270;-71
2021/07/27 02:49:54;;;;;;;22.40;12.73;;;18.20;99.90;;;;;;2087428;28;20021;-71
2021/07/27 02:51:01;;;;;;;17.67;12.05;;;18.20;99.90;;;;;;2085785;28;20044;-72
2021/07/27 02:52:02;;;;;;;20.88;11.77;;;18.20;99.90;;;;;;2079239;28;20541;-73
2021/07/27 02:53:03;;;;;;;23.98;12.43;;;18.20;99.90;;;;;;2079896;28;20028;-72
2021/07/27 02:54:07;;;;;;;20.45;12.30;;;18.20;99.90;;;;;;2085130;28;20033;-72
2021/07/27 02:55:08;;;;;;;22.88;12.18;;;18.20;99.90;;;;;;2079557;28;20017;-72
2021/07/27 02:56:09;;;;;;;18.50;11.82;;;18.20;99.90;;;;;;2082006;28;20504;-73
2021/07/27 02:57:10;;;;;;;18.92;11.60;;;18.20;99.90;;;;;;2087509;28;20039;-72
2021/07/27 02:58:10;;;;;;;17.70;12.02;;;18.20;99.90;;;;;;2087082;28;20029;-72
2021/07/27 02:59:11;;;;;;;20.25;11.73;;;18.20;99.90;;;;;;2087472;28;20025;-72
2021/07/27 03:00:12;;;;;;;20.48;11.38;;;18.20;99.90;;;;;;2071364;28;20513;-72
2021/07/27 03:01:13;;;;;;;20.17;11.10;;;18.20;99.90;;;;;;2078969;28;20120;-72
2021/07/27 03:02:21;;;;;;;18.92;11.50;;;18.20;99.90;;;;;;2084792;28;20033;-71
2021/07/27 03:03:22;;;;;;;20.15;10.88;;;18.20;99.90;;;;;;2079795;28;20048;-72
2021/07/27 03:04:23;;;;;;;21.05;11.30;;;18.20;99.90;;;;;;2079607;28;20029;-71
2021/07/27 03:05:24;;;;;;;19.23;11.10;;;18.20;99.90;;;;;;2080017;28;20018;-71
2021/07/27 03:06:27;;;;;;;20.25;11.18;;;18.20;99.90;;;;;;2080970;28;20021;-72
2021/07/27 03:07:48;;;;;;;23.13;11.43;;;18.20;99.90;;;;;;2071405;28;20030;-74
2021/07/27 03:11:13;;;;;;;19.35;11.00;;;18.20;99.90;;;;;;2084647;28;20025;-71
2021/07/27 03:12:14;;;;;;;19.30;11.10;;;18.20;99.90;;;;;;2087639;28;20113;-71
2021/07/27 03:13:15;;;;;;;21.75;11.88;;;18.20;99.90;;;;;;2079604;28;20048;-71
2021/07/27 03:14:16;;;;;;;20.95;10.73;;;18.20;99.90;;;;;;2087371;28;20687;-72
2021/07/27 03:15:18;;;;;;;23.27;10.88;;;18.20;99.90;;;;;;2087805;28;20036;-72
2021/07/27 03:16:23;;;;;;;;;;;18.20;99.90;;;;;;2089042;28;20021;-71
2021/07/27 03:17:26;;;;;;;15.73;10.27;;;18.10;99.90;;;;;;2082928;28;19943;-72
2021/07/27 03:18:26;;;;;;;22.27;11.07;;;18.10;99.90;;;;;;2079097;28;20029;-73
2021/07/27 03:19:27;;;;;;;20.52;11.30;;;18.10;99.90;;;;;;2090959;28;20600;-74
2021/07/27 03:20:28;;;;;;;21.40;11.07;;;18.10;99.90;;;;;;2081780;28;20504;-73
2021/07/27 03:21:29;;;;;;;16.48;10.38;;;18.10;99.90;;;;;;2079384;28;20033;-73
2021/07/27 03:22:29;;;;;;;15.98;11.02;;;18.10;99.90;;;;;;2082848;28;20112;-74
2021/07/27 03:23:30;;;;;;;19.83;10.77;;;18.10;99.90;;;;;;2080131;28;20029;-73
2021/07/27 03:24:31;;;;;;;18.48;10.05;;;18.10;99.90;;;;;;2078236;28;20029;-73
2021/07/27 03:25:31;;;;;;;23.85;11.70;;;18.10;99.90;;;;;;2085703;28;20028;-72
2021/07/27 03:26:32;;;;;;;19.77;10.85;;;18.00;99.90;;;;;;2087863;28;20082;-73
2021/07/27 03:27:33;;;;;;;19.65;12.00;;;18.00;99.90;;;;;;2087277;28;20015;-73
2021/07/27 03:28:34;;;;;;;19.30;11.25;;;18.00;99.90;;;;;;2079277;28;20025;-73
2021/07/27 03:29:35;;;;;;;25.50;11.88;;;18.00;99.90;;;;;;2072909;28;20021;-72
2021/07/27 03:30:36;;;;;;;15.35;10.93;;;18.00;99.90;;;;;;2082109;28;20032;-72
2021/07/27 03:31:36;;;;;;;18.98;11.30;;;18.00;99.90;;;;;;2086886;28;20028;-72
2021/07/27 03:32:37;;;;;;;20.27;11.07;;;18.00;99.90;;;;;;2084655;28;20092;-73
2021/07/27 03:33:39;;;;;;;21.42;10.63;;;18.00;99.90;;;;;;2080286;28;20029;-72
2021/07/27 03:34:41;;;;;;;18.90;10.18;;;18.00;99.90;;;;;;2079850;28;20100;-73
2021/07/27 03:35:42;;;;;;;18.45;9.77;;;18.00;99.90;;;;;;2080311;28;20765;-73
2021/07/27 03:36:46;;;;;;;21.08;10.95;;;18.00;99.90;;;;;;2080364;28;20509;-74
2021/07/27 03:37:47;;;;;;;18.52;11.07;;;18.00;99.90;;;;;;2080888;28;20439;-72
2021/07/27 03:38:49;;;;;;;19.90;10.50;;;18.00;99.90;;;;;;2078187;28;20021;-74
2021/07/27 03:39:50;;;;;;;18.50;10.95;;;18.00;99.90;;;;;;2082465;28;20021;-73
2021/07/27 03:40:51;;;;;;;14.60;10.35;;;18.00;99.90;;;;;;2085018;28;20109;-71
2021/07/27 03:41:51;;;;;;;19.58;10.88;;;18.00;99.90;;;;;;2080035;28;20117;-73
2021/07/27 03:42:52;;;;;;;20.90;11.38;;;18.00;99.90;;;;;;2071930;28;20026;-72
2021/07/27 03:43:53;;;;;;;19.38;10.43;;;18.00;99.90;;;;;;2085416;28;20027;-73
2021/07/27 03:44:58;;;;;;;18.10;10.70;;;18.00;99.90;;;;;;2078844;28;20018;-72
2021/07/27 03:45:58;;;;;;;20.58;10.70;;;17.90;99.90;;;;;;2073073;28;20137;-72
2021/07/27 03:47:05;;;;;;;15.63;10.40;;;18.00;99.90;;;;;;2087573;28;20199;-73
2021/07/27 03:48:06;;;;;;;19.23;11.38;;;17.90;99.90;;;;;;2084598;28;20018;-73
2021/07/27 03:49:07;;;;;;;14.35;10.52;;;17.90;99.90;;;;;;2081170;28;20021;-72
2021/07/27 03:50:10;;;;;;;20.98;11.18;;;17.90;99.90;;;;;;2082459;28;20413;-73
2021/07/27 03:51:13;;;;;;;20.85;10.63;;;17.90;99.90;;;;;;2084690;28;20060;-72
2021/07/27 03:52:14;;;;;;;19.63;10.98;;;17.90;99.90;;;;;;2084778;28;20025;-73
2021/07/27 03:53:16;;;;;;;21.52;10.98;;;17.90;99.90;;;;;;2083757;28;20471;-72
2021/07/27 03:54:17;;;;;;;18.13;10.30;;;17.90;99.90;;;;;;2072688;28;20037;-74
2021/07/27 03:55:18;;;;;;;22.17;10.38;;;17.90;99.90;;;;;;2080599;28;20418;-72
2021/07/27 03:56:18;;;;;;;18.80;10.63;;;17.80;99.90;;;;;;2083039;28;20028;-72
2021/07/27 03:57:19;;;;;;;15.45;9.75;;;17.80;99.90;;;;;;2085692;28;20543;-71
2021/07/27 03:58:20;;;;;;;16.95;9.43;;;17.80;99.90;;;;;;2085591;28;20040;-71
2021/07/27 03:59:21;;;;;;;20.75;9.35;;;17.80;99.90;;;;;;2080822;28;20026;-74
2021/07/27 04:00:23;;;;;;;21.67;10.32;;;17.80;99.90;;;;;;2082313;28;20412;-73
2021/07/27 04:01:24;;;;;;;21.15;8.70;;;17.80;99.90;;;;;;2082455;28;20040;-72
2021/07/27 04:02:25;;;;;;;19.58;9.45;;;17.80;99.90;;;;;;2080498;28;20025;-74
2021/07/27 04:03:26;;;;;;;23.57;9.33;;;17.80;99.90;;;;;;2081642;28;20028;-72
2021/07/27 04:04:27;;;;;;;17.48;10.00;;;17.80;99.90;;;;;;2081444;28;20256;-71
2021/07/27 04:05:27;;;;;;;17.83;9.55;;;17.80;99.90;;;;;;2081499;28;20021;-71
2021/07/27 04:06:28;;;;;;;21.90;10.50;;;17.80;99.90;;;;;;2089793;28;20033;-74
2021/07/27 04:07:29;;;;;;;20.20;9.57;;;17.70;99.90;;;;;;2090292;28;20485;-72
2021/07/27 04:08:29;;;;;;;16.33;10.52;;;17.70;99.90;;;;;;2089249;28;20056;-73
2021/07/27 04:09:30;;;;;;;16.80;9.70;;;17.70;99.90;;;;;;2089733;28;20021;-72
2021/07/27 04:10:33;;;;;;;14.68;9.90;;;17.70;99.90;;;;;;2089195;28;20063;-71
2021/07/27 04:11:33;;;;;;;25.80;10.32;;;17.70;99.90;;;;;;2088535;28;20032;-72
2021/07/27 04:12:35;;;;;;;22.55;9.18;;;17.70;99.90;;;;;;2080581;28;20451;-72
2021/07/27 04:13:36;;;;;;;18.95;9.63;;;17.70;99.90;;;;;;2083124;28;20068;-72
2021/07/27 04:14:36;;;;;;;18.30;9.63;;;17.70;99.90;;;;;;2080924;28;20152;-72
2021/07/27 04:15:37;;;;;;;18.10;9.60;;;17.60;99.90;;;;;;2085629;28;20021;-72
2021/07/27 04:16:41;;;;;;;15.88;9.55;;;17.60;99.90;;;;;;2088823;28;20025;-72
2021/07/27 04:17:42;;;;;;;14.27;9.05;;;17.60;99.90;;;;;;2081095;28;20025;-72
2021/07/27 04:18:42;;;;;;;12.82;8.43;;;17.60;99.90;;;;;;2080777;28;20052;-72
2021/07/27 04:19:43;;;;;;;17.08;9.73;;;17.60;99.90;;;;;;2082322;28;20633;-71
2021/07/27 04:20:44;;;;;;;18.05;9.35;;;17.60;99.90;;;;;;2088285;28;20024;-71
2021/07/27 04:21:44;;;;;;;16.63;10.13;;;17.60;99.90;;;;;;2089103;28;20630;-72
2021/07/27 04:22:51;;;;;;;18.92;9.43;;;17.60;99.90;;;;;;2088291;28;20551;-71
2021/07/27 04:23:51;;;;;;;16.00;9.43;;;17.60;99.90;;;;;;2080588;28;20574;-72
2021/07/27 04:24:52;;;;;;;16.38;9.25;;;17.50;99.90;;;;;;2088697;28;20025;-72
2021/07/27 04:25:53;;;;;;;18.25;9.52;;;17.60;99.90;;;;;;2088782;28;20013;-71
2021/07/27 04:26:54;;;;;;;14.65;9.93;;;17.50;99.90;;;;;;2089201;28;20108;-73
2021/07/27 04:27:55;;;;;;;15.32;9.50;;;17.50;99.90;;;;;;2088209;28;20104;-73
2021/07/27 04:28:56;;;;;;;17.48;10.55;;;17.50;99.90;;;;;;2084495;28;20017;-72
2021/07/27 04:29:56;;;;;;;26.50;11.35;;;17.50;99.90;;;;;;2085274;28;20025;-73
2021/07/27 04:30:57;;;;;;;17.95;11.00;;;17.50;99.90;;;;;;2074849;28;20282;-73
2021/07/27 04:31:58;;;;;;;16.70;10.15;;;17.50;99.90;;;;;;2080632;28;20560;-72
2021/07/27 04:32:59;;;;;;;20.30;10.68;;;17.50;99.90;;;;;;2084723;28;20028;-73
2021/07/27 04:33:59;;;;;;;18.70;11.13;;;17.50;99.90;;;;;;2082385;28;20033;-73
2021/07/27 04:35:00;;;;;;;16.00;10.32;;;17.50;99.90;;;;;;2081455;28;20025;-73
2021/07/27 04:36:01;;;;;;;15.95;10.32;;;17.50;99.90;;;;;;2083505;28;20025;-73
2021/07/27 04:37:01;;;;;;;20.42;10.95;;;17.40;99.90;;;;;;2086948;28;20021;-73
2021/07/27 04:38:02;;;;;;;19.15;11.38;;;17.50;99.90;;;;;;2089100;28;20025;-73
2021/07/27 04:39:03;;;;;;;19.05;11.50;;;17.40;99.90;;;;;;2082889;28;20029;-73
2021/07/27 04:40:04;;;;;;;22.05;11.77;;;17.40;99.90;;;;;;2089474;28;20459;-73
2021/07/27 04:41:06;;;;;;;21.92;11.52;;;17.40;99.90;;;;;;2088499;28;20017;-75
2021/07/27 04:42:07;;;;;;;21.85;12.10;;;17.40;99.90;;;;;;2089115;28;20029;-74
2021/07/27 04:43:08;;;;;;;19.80;11.70;;;17.40;99.90;;;;;;2081611;28;20452;-73
2021/07/27 04:44:08;;;;;;;21.95;10.75;;;17.30;99.90;;;;;;2081112;28;20256;-73
2021/07/27 04:45:09;;;;;;;18.85;11.43;;;17.30;99.90;;;;;;2081404;28;20403;-72
2021/07/27 04:46:10;;;;;;;16.98;10.35;;;17.30;99.90;;;;;;2079747;28;20013;-72
2021/07/27 04:47:11;;;;;;;18.50;10.73;;;17.30;99.90;;;;;;2083466;28;20105;-75
2021/07/27 04:48:11;;;;;;;24.95;12.25;;;17.30;99.90;;;;;;2082645;28;20056;-72
2021/07/27 04:49:15;;;;;;;17.38;11.43;;;17.30;99.90;;;;;;2081554;28;20413;-72
2021/07/27 04:50:16;;;;;;;17.25;11.10;;;17.20;99.90;;;;;;2082805;28;20055;-72
2021/07/27 04:51:17;;;;;;;17.95;11.23;;;17.20;99.90;;;;;;2089276;28;20047;-73
2021/07/27 04:52:20;;;;;;;21.00;11.35;;;17.20;99.90;;;;;;2090009;28;20021;-73
2021/07/27 04:53:23;;;;;;;20.83;11.20;;;17.20;99.90;;;;;;2088940;28;20021;-73
2021/07/27 04:54:40;;;;;;;18.08;11.02;;;17.20;99.90;;;;;;2089944;28;20027;-76
2021/07/27 04:55:41;;;;;;;17.30;10.23;;;17.20;99.90;;;;;;2081557;28;20044;-73
2021/07/27 04:56:42;;;;;;;20.42;11.25;;;17.20;99.90;;;;;;2088388;28;20438;-73
2021/07/27 04:57:43;;;;;;;19.88;10.77;;;17.20;99.90;;;;;;2082758;28;20494;-74
2021/07/27 04:58:44;;;;;;;17.00;11.43;;;17.20;99.90;;;;;;2090445;28;20553;-73
2021/07/27 04:59:44;;;;;;;19.05;11.93;;;17.20;99.90;;;;;;2086008;28;20274;-73
2021/07/27 05:00:45;;;;;;;16.48;11.18;;;17.20;99.90;;;;;;2084097;28;20439;-76
2021/07/27 05:01:46;;;;;;;24.00;12.80;;;17.20;99.90;;;;;;2082151;28;20049;-73
2021/07/27 05:02:46;;;;;;;22.75;12.35;;;17.20;99.90;;;;;;2085034;28;20514;-73
2021/07/27 05:03:47;;;;;;;23.63;13.20;;;17.20;99.90;;;;;;2088549;28;20032;-73
2021/07/27 05:04:48;;;;;;;19.88;11.88;;;17.20;99.90;;;;;;2086013;28;20092;-73
2021/07/27 05:05:48;;;;;;;16.30;11.70;;;17.20;99.90;;;;;;2089403;28;20021;-74
2021/07/27 05:06:49;;;;;;;21.88;12.60;;;17.20;99.90;;;;;;2084038;28;20021;-74
2021/07/27 05:07:50;;;;;;;25.80;12.00;;;17.20;99.90;;;;;;2080874;28;20034;-74
2021/07/27 05:08:51;;;;;;;19.45;12.85;;;17.30;99.90;;;;;;2086033;28;20024;-72
2021/07/27 05:09:51;;;;;;;17.52;11.77;;;17.30;99.90;;;;;;2088434;28;20021;-74
2021/07/27 05:10:52;;;;;;;19.35;11.30;;;17.30;99.90;;;;;;2079841;28;20032;-73
2021/07/27 05:11:56;;;;;;;20.10;11.35;;;17.30;99.90;;;;;;2086821;28;20031;-73
2021/07/27 05:12:58;;;;;;;19.38;11.35;;;17.30;99.90;;;;;;2081121;28;20538;-73
2021/07/27 05:13:59;;;;;;;19.80;11.85;;;17.30;99.90;;;;;;2086612;28;20075;-72
2021/07/27 05:14:59;;;;;;;17.13;11.45;;;17.30;99.90;;;;;;2079918;28;20088;-73
2021/07/27 05:16:02;;;;;;;20.33;11.77;;;17.30;99.90;;;;;;2087665;28;20051;-73
2021/07/27 05:17:07;;;;;;;19.17;11.07;;;17.30;99.90;;;;;;2088086;28;20153;-73
2021/07/27 05:18:07;;;;;;;21.13;11.95;;;17.30;99.90;;;;;;2080845;28;20025;-73
2021/07/27 05:19:08;;;;;;;20.80;11.60;;;17.30;99.90;;;;;;2081872;28;20468;-73
2021/07/27 05:20:09;;;;;;;20.73;12.50;;;17.30;99.90;;;;;;2081043;28;20049;-71
2021/07/27 05:21:10;;;;;;;23.92;11.98;;;17.30;99.90;;;;;;2079553;28;20071;-73
2021/07/27 05:22:11;;;;;;;21.73;11.70;;;17.30;99.90;;;;;;2084694;28;20769;-72
2021/07/27 05:23:11;;;;;;;16.25;11.38;;;17.30;99.90;;;;;;2088476;28;20049;-72
2021/07/27 05:24:12;;;;;;;17.98;11.85;;;17.40;99.90;;;;;;2079699;28;20032;-73
2021/07/27 05:25:15;;;;;;;19.45;11.57;;;17.40;99.90;;;;;;2072256;28;20108;-73
2021/07/27 05:26:15;;;;;;;22.85;11.30;;;17.40;99.90;;;;;;2072106;28;20026;-73
2021/07/27 05:27:21;;;;;;;19.70;11.82;;;17.40;99.90;;;;;;2074191;28;20046;-74
2021/07/27 05:28:25;;;;;;;22.77;11.38;;;17.40;99.90;;;;;;2085446;28;20654;-72
2021/07/27 05:29:26;;;;;;;23.38;12.20;;;17.40;99.90;;;;;;2080088;28;20024;-73
2021/07/27 05:30:26;;;;;;;16.98;11.90;;;17.40;99.90;;;;;;2072949;28;20358;-73
2021/07/27 05:31:27;;;;;;;16.00;10.80;;;17.40;99.90;;;;;;2080695;28;20509;-73
2021/07/27 05:32:28;;;;;;;21.10;11.38;;;17.40;99.90;;;;;;2078824;28;20021;-73
2021/07/27 05:33:29;;;;;;;20.38;11.93;;;17.40;99.90;;;;;;2087174;28;20411;-73
2021/07/27 05:34:29;;;;;;;22.40;11.88;;;17.40;99.90;;;;;;2079365;28;20053;-72
2021/07/27 05:35:30;;;;;;;17.70;11.88;;;17.40;99.90;;;;;;2079922;28;20048;-73
2021/07/27 05:36:31;;;;;;;19.60;12.07;;;17.40;99.90;;;;;;2080959;28;20052;-73